sensor_id;sensor_type;location;lat;lon;timestamp;P1;durP1;ratioP1;P2;durP2;ratioP2
49722;SDS011;43484;43.608;1.458;2023-08-06T00:00:54;5.75;;;1.80;;
49722;SDS011;43484;43.608;1.458;2023-08-06T00:03:21;7.50;;;2.20;;
49722;SDS011;43484;43.608;1.458;2023-08-06T00:05:48;5.22;;;1.90;;
49722;SDS011;43484;43.608;1.458;2023-08-06T00:08:14;3.75;;;1.85;;
49722;SDS011;43484;43.608;1.458;2023-08-06T00:10:41;4.45;;;1.77;;
49722;SDS011;43484;43.608;1.458;2023-08-06T00:13:08;7.95;;;2.10;;
49722;SDS011;43484;43.608;1.458;2023-08-06T00:15:34;6.55;;;2.08;;
49722;SDS011;43484;43.608;1.458;2023-08-06T00:18:01;5.53;;;2.30;;
49722;SDS011;43484;43.608;1.458;2023-08-06T00:20:28;4.70;;;2.13;;
49722;SDS011;43484;43.608;1.458;2023-08-06T00:22:54;9.55;;;2.35;;
49722;SDS011;43484;43.608;1.458;2023-08-06T00:25:22;7.03;;;2.70;;
49722;SDS011;43484;43.608;1.458;2023-08-06T00:27:48;7.00;;;2.25;;
49722;SDS011;43484;43.608;1.458;2023-08-06T00:30:15;8.15;;;1.83;;
49722;SDS011;43484;43.608;1.458;2023-08-06T00:32:41;6.55;;;2.28;;
49722;SDS011;43484;43.608;1.458;2023-08-06T00:35:08;9.23;;;2.55;;
49722;SDS011;43484;43.608;1.458;2023-08-06T00:37:35;11.38;;;2.05;;
49722;SDS011;43484;43.608;1.458;2023-08-06T00:40:02;7.22;;;2.22;;
49722;SDS011;43484;43.608;1.458;2023-08-06T00:42:28;9.25;;;2.47;;
49722;SDS011;43484;43.608;1.458;2023-08-06T00:44:55;6.28;;;2.25;;
49722;SDS011;43484;43.608;1.458;2023-08-06T00:47:22;9.63;;;2.25;;
49722;SDS011;43484;43.608;1.458;2023-08-06T00:49:49;9.70;;;2.55;;
49722;SDS011;43484;43.608;1.458;2023-08-06T00:52:16;8.35;;;2.50;;
49722;SDS011;43484;43.608;1.458;2023-08-06T00:54:43;7.72;;;1.80;;
49722;SDS011;43484;43.608;1.458;2023-08-06T00:57:09;6.93;;;2.30;;
49722;SDS011;43484;43.608;1.458;2023-08-06T00:59:37;8.90;;;2.33;;
49722;SDS011;43484;43.608;1.458;2023-08-06T01:02:04;6.30;;;1.63;;
49722;SDS011;43484;43.608;1.458;2023-08-06T01:04:31;6.40;;;1.60;;
49722;SDS011;43484;43.608;1.458;2023-08-06T01:15:07;7.60;;;1.88;;
49722;SDS011;43484;43.608;1.458;2023-08-06T01:18:02;8.40;;;1.95;;
49722;SDS011;43484;43.608;1.458;2023-08-06T01:20:30;8.18;;;2.08;;
49722;SDS011;43484;43.608;1.458;2023-08-06T01:22:57;8.25;;;2.20;;
49722;SDS011;43484;43.608;1.458;2023-08-06T01:25:33;18.85;;;2.92;;
49722;SDS011;43484;43.608;1.458;2023-08-06T01:28:16;20.00;;;2.30;;
49722;SDS011;43484;43.608;1.458;2023-08-06T01:30:49;14.63;;;2.65;;
49722;SDS011;43484;43.608;1.458;2023-08-06T01:33:19;15.80;;;2.55;;
49722;SDS011;43484;43.608;1.458;2023-08-06T01:35:48;12.75;;;2.42;;
49722;SDS011;43484;43.608;1.458;2023-08-06T01:38:17;14.23;;;2.33;;
49722;SDS011;43484;43.608;1.458;2023-08-06T01:40:44;20.45;;;2.88;;
49722;SDS011;43484;43.608;1.458;2023-08-06T01:43:10;12.20;;;2.00;;
49722;SDS011;43484;43.608;1.458;2023-08-06T01:45:37;22.02;;;2.63;;
49722;SDS011;43484;43.608;1.458;2023-08-06T01:48:03;17.15;;;1.92;;
49722;SDS011;43484;43.608;1.458;2023-08-06T01:50:30;12.27;;;1.80;;
49722;SDS011;43484;43.608;1.458;2023-08-06T01:52:57;16.23;;;2.30;;
49722;SDS011;43484;43.608;1.458;2023-08-06T01:55:24;18.75;;;2.08;;
49722;SDS011;43484;43.608;1.458;2023-08-06T01:57:50;21.02;;;2.95;;
49722;SDS011;43484;43.608;1.458;2023-08-06T02:00:17;17.92;;;2.50;;
49722;SDS011;43484;43.608;1.458;2023-08-06T02:02:44;19.95;;;3.17;;
49722;SDS011;43484;43.608;1.458;2023-08-06T02:05:10;17.40;;;3.47;;
49722;SDS011;43484;43.608;1.458;2023-08-06T02:07:37;25.70;;;3.30;;
49722;SDS011;43484;43.608;1.458;2023-08-06T02:10:03;20.13;;;3.03;;
49722;SDS011;43484;43.608;1.458;2023-08-06T02:12:30;18.55;;;2.40;;
49722;SDS011;43484;43.608;1.458;2023-08-06T02:14:57;18.48;;;2.13;;
49722;SDS011;43484;43.608;1.458;2023-08-06T02:17:24;13.07;;;2.10;;
49722;SDS011;43484;43.608;1.458;2023-08-06T02:19:50;16.73;;;2.72;;
49722;SDS011;43484;43.608;1.458;2023-08-06T02:22:17;14.00;;;3.08;;
49722;SDS011;43484;43.608;1.458;2023-08-06T02:24:43;27.02;;;2.95;;
49722;SDS011;43484;43.608;1.458;2023-08-06T02:27:10;18.73;;;2.55;;
49722;SDS011;43484;43.608;1.458;2023-08-06T02:29:37;19.60;;;3.45;;
49722;SDS011;43484;43.608;1.458;2023-08-06T02:32:06;17.85;;;3.47;;
49722;SDS011;43484;43.608;1.458;2023-08-06T02:34:33;22.85;;;3.58;;
49722;SDS011;43484;43.608;1.458;2023-08-06T02:37:00;22.67;;;2.88;;
49722;SDS011;43484;43.608;1.458;2023-08-06T02:39:26;21.20;;;2.75;;
49722;SDS011;43484;43.608;1.458;2023-08-06T02:41:53;15.80;;;2.72;;
49722;SDS011;43484;43.608;1.458;2023-08-06T02:44:20;13.25;;;2.33;;
49722;SDS011;43484;43.608;1.458;2023-08-06T02:46:46;12.98;;;2.42;;
49722;SDS011;43484;43.608;1.458;2023-08-06T02:49:13;16.45;;;2.50;;
49722;SDS011;43484;43.608;1.458;2023-08-06T02:51:39;18.27;;;2.90;;
49722;SDS011;43484;43.608;1.458;2023-08-06T02:54:06;16.15;;;2.45;;
49722;SDS011;43484;43.608;1.458;2023-08-06T02:56:32;22.45;;;2.53;;
49722;SDS011;43484;43.608;1.458;2023-08-06T02:59:00;15.38;;;2.00;;
49722;SDS011;43484;43.608;1.458;2023-08-06T03:01:26;19.95;;;2.38;;
49722;SDS011;43484;43.608;1.458;2023-08-06T03:03:54;22.08;;;2.85;;
49722;SDS011;43484;43.608;1.458;2023-08-06T03:06:21;11.95;;;2.13;;
49722;SDS011;43484;43.608;1.458;2023-08-06T03:08:48;23.08;;;2.03;;
49722;SDS011;43484;43.608;1.458;2023-08-06T03:11:14;13.63;;;1.95;;
49722;SDS011;43484;43.608;1.458;2023-08-06T03:13:41;17.27;;;2.72;;
49722;SDS011;43484;43.608;1.458;2023-08-06T03:16:07;24.73;;;2.22;;
49722;SDS011;43484;43.608;1.458;2023-08-06T03:18:34;18.42;;;2.47;;
49722;SDS011;43484;43.608;1.458;2023-08-06T03:21:01;14.50;;;2.28;;
49722;SDS011;43484;43.608;1.458;2023-08-06T03:23:28;17.67;;;1.65;;
49722;SDS011;43484;43.608;1.458;2023-08-06T03:25:54;21.00;;;2.58;;
49722;SDS011;43484;43.608;1.458;2023-08-06T03:28:21;16.02;;;2.65;;
49722;SDS011;43484;43.608;1.458;2023-08-06T03:30:48;13.15;;;1.65;;
49722;SDS011;43484;43.608;1.458;2023-08-06T03:33:24;11.88;;;2.00;;
49722;SDS011;43484;43.608;1.458;2023-08-06T03:35:51;15.13;;;2.08;;
49722;SDS011;43484;43.608;1.458;2023-08-06T03:38:17;16.40;;;2.08;;
49722;SDS011;43484;43.608;1.458;2023-08-06T03:40:44;15.88;;;2.00;;
49722;SDS011;43484;43.608;1.458;2023-08-06T03:43:12;15.45;;;2.20;;
49722;SDS011;43484;43.608;1.458;2023-08-06T03:45:38;15.40;;;2.80;;
49722;SDS011;43484;43.608;1.458;2023-08-06T03:48:07;18.42;;;2.45;;
49722;SDS011;43484;43.608;1.458;2023-08-06T03:50:34;17.50;;;2.17;;
49722;SDS011;43484;43.608;1.458;2023-08-06T03:53:01;15.73;;;2.50;;
49722;SDS011;43484;43.608;1.458;2023-08-06T03:55:28;15.90;;;2.97;;
49722;SDS011;43484;43.608;1.458;2023-08-06T03:57:54;18.08;;;1.88;;
49722;SDS011;43484;43.608;1.458;2023-08-06T04:00:21;14.85;;;2.22;;
49722;SDS011;43484;43.608;1.458;2023-08-06T04:02:48;16.65;;;2.63;;
49722;SDS011;43484;43.608;1.458;2023-08-06T04:05:15;17.13;;;3.20;;
49722;SDS011;43484;43.608;1.458;2023-08-06T04:07:43;22.33;;;3.95;;
49722;SDS011;43484;43.608;1.458;2023-08-06T04:10:09;18.10;;;2.63;;
49722;SDS011;43484;43.608;1.458;2023-08-06T04:12:36;21.83;;;2.70;;
49722;SDS011;43484;43.608;1.458;2023-08-06T04:15:05;18.50;;;2.53;;
49722;SDS011;43484;43.608;1.458;2023-08-06T04:17:33;15.93;;;2.90;;
49722;SDS011;43484;43.608;1.458;2023-08-06T04:19:59;10.40;;;2.13;;
49722;SDS011;43484;43.608;1.458;2023-08-06T04:22:26;20.08;;;2.42;;
49722;SDS011;43484;43.608;1.458;2023-08-06T04:24:53;24.60;;;2.67;;
49722;SDS011;43484;43.608;1.458;2023-08-06T04:27:20;23.88;;;3.33;;
49722;SDS011;43484;43.608;1.458;2023-08-06T04:29:46;18.30;;;2.60;;
49722;SDS011;43484;43.608;1.458;2023-08-06T04:32:13;15.95;;;2.67;;
49722;SDS011;43484;43.608;1.458;2023-08-06T04:34:40;21.88;;;2.78;;
49722;SDS011;43484;43.608;1.458;2023-08-06T04:37:07;18.77;;;2.60;;
49722;SDS011;43484;43.608;1.458;2023-08-06T04:39:33;22.45;;;2.90;;
49722;SDS011;43484;43.608;1.458;2023-08-06T04:42:00;17.63;;;2.63;;
49722;SDS011;43484;43.608;1.458;2023-08-06T04:44:26;25.08;;;3.22;;
49722;SDS011;43484;43.608;1.458;2023-08-06T04:46:53;24.05;;;2.78;;
49722;SDS011;43484;43.608;1.458;2023-08-06T04:49:20;19.95;;;3.50;;
49722;SDS011;43484;43.608;1.458;2023-08-06T04:51:47;21.42;;;2.42;;
49722;SDS011;43484;43.608;1.458;2023-08-06T04:54:14;24.17;;;3.03;;
49722;SDS011;43484;43.608;1.458;2023-08-06T04:56:41;19.55;;;2.55;;
49722;SDS011;43484;43.608;1.458;2023-08-06T04:59:08;23.90;;;2.67;;
49722;SDS011;43484;43.608;1.458;2023-08-06T05:01:35;23.45;;;3.00;;
49722;SDS011;43484;43.608;1.458;2023-08-06T05:04:01;18.13;;;2.05;;
49722;SDS011;43484;43.608;1.458;2023-08-06T05:06:28;18.60;;;2.95;;
49722;SDS011;43484;43.608;1.458;2023-08-06T05:08:55;21.15;;;3.35;;
49722;SDS011;43484;43.608;1.458;2023-08-06T05:11:21;14.40;;;2.08;;
49722;SDS011;43484;43.608;1.458;2023-08-06T05:13:48;15.88;;;2.00;;
49722;SDS011;43484;43.608;1.458;2023-08-06T05:16:15;27.75;;;3.60;;
49722;SDS011;43484;43.608;1.458;2023-08-06T05:18:41;20.92;;;3.10;;
49722;SDS011;43484;43.608;1.458;2023-08-06T05:21:08;19.50;;;2.20;;
49722;SDS011;43484;43.608;1.458;2023-08-06T05:23:35;18.27;;;2.45;;
49722;SDS011;43484;43.608;1.458;2023-08-06T05:26:01;20.52;;;2.83;;
49722;SDS011;43484;43.608;1.458;2023-08-06T05:28:28;22.05;;;3.03;;
49722;SDS011;43484;43.608;1.458;2023-08-06T05:30:55;24.48;;;2.50;;
49722;SDS011;43484;43.608;1.458;2023-08-06T05:33:21;26.40;;;3.28;;
49722;SDS011;43484;43.608;1.458;2023-08-06T05:35:49;15.27;;;2.20;;
49722;SDS011;43484;43.608;1.458;2023-08-06T05:38:16;15.73;;;2.47;;
49722;SDS011;43484;43.608;1.458;2023-08-06T05:40:43;21.98;;;2.75;;
49722;SDS011;43484;43.608;1.458;2023-08-06T05:43:11;14.75;;;2.92;;
49722;SDS011;43484;43.608;1.458;2023-08-06T05:45:37;27.30;;;2.92;;
49722;SDS011;43484;43.608;1.458;2023-08-06T05:48:04;14.48;;;2.00;;
49722;SDS011;43484;43.608;1.458;2023-08-06T05:50:31;14.38;;;2.13;;
49722;SDS011;43484;43.608;1.458;2023-08-06T05:52:57;19.92;;;2.40;;
49722;SDS011;43484;43.608;1.458;2023-08-06T05:55:27;13.57;;;2.50;;
49722;SDS011;43484;43.608;1.458;2023-08-06T05:57:54;12.93;;;2.45;;
49722;SDS011;43484;43.608;1.458;2023-08-06T06:00:21;18.58;;;1.88;;
49722;SDS011;43484;43.608;1.458;2023-08-06T06:02:48;13.07;;;1.80;;
49722;SDS011;43484;43.608;1.458;2023-08-06T06:05:15;20.13;;;2.33;;
49722;SDS011;43484;43.608;1.458;2023-08-06T06:07:42;25.25;;;2.70;;
49722;SDS011;43484;43.608;1.458;2023-08-06T06:10:09;16.40;;;2.00;;
49722;SDS011;43484;43.608;1.458;2023-08-06T06:12:37;15.48;;;2.15;;
49722;SDS011;43484;43.608;1.458;2023-08-06T06:15:05;13.63;;;1.92;;
49722;SDS011;43484;43.608;1.458;2023-08-06T06:17:32;19.10;;;2.83;;
49722;SDS011;43484;43.608;1.458;2023-08-06T06:19:58;23.67;;;3.65;;
49722;SDS011;43484;43.608;1.458;2023-08-06T06:22:25;15.70;;;2.65;;
49722;SDS011;43484;43.608;1.458;2023-08-06T06:24:52;17.67;;;2.40;;
49722;SDS011;43484;43.608;1.458;2023-08-06T06:27:18;17.00;;;2.30;;
49722;SDS011;43484;43.608;1.458;2023-08-06T06:29:45;24.00;;;2.33;;
49722;SDS011;43484;43.608;1.458;2023-08-06T06:32:12;25.58;;;3.30;;
49722;SDS011;43484;43.608;1.458;2023-08-06T06:34:38;18.20;;;2.78;;
49722;SDS011;43484;43.608;1.458;2023-08-06T06:37:05;19.63;;;2.83;;
49722;SDS011;43484;43.608;1.458;2023-08-06T06:39:32;15.43;;;2.97;;
49722;SDS011;43484;43.608;1.458;2023-08-06T06:41:58;15.15;;;2.20;;
49722;SDS011;43484;43.608;1.458;2023-08-06T06:44:25;21.48;;;2.30;;
49722;SDS011;43484;43.608;1.458;2023-08-06T06:46:51;17.60;;;2.30;;
49722;SDS011;43484;43.608;1.458;2023-08-06T06:49:18;21.58;;;2.42;;
49722;SDS011;43484;43.608;1.458;2023-08-06T06:51:45;10.88;;;2.20;;
49722;SDS011;43484;43.608;1.458;2023-08-06T06:54:11;22.67;;;3.15;;
49722;SDS011;43484;43.608;1.458;2023-08-06T06:56:38;24.20;;;3.25;;
49722;SDS011;43484;43.608;1.458;2023-08-06T06:59:05;19.60;;;2.63;;
49722;SDS011;43484;43.608;1.458;2023-08-06T07:01:31;17.40;;;2.30;;
49722;SDS011;43484;43.608;1.458;2023-08-06T07:03:58;15.23;;;2.35;;
49722;SDS011;43484;43.608;1.458;2023-08-06T07:06:25;13.65;;;2.10;;
49722;SDS011;43484;43.608;1.458;2023-08-06T07:08:51;15.38;;;2.42;;
49722;SDS011;43484;43.608;1.458;2023-08-06T07:11:18;15.02;;;1.92;;
49722;SDS011;43484;43.608;1.458;2023-08-06T07:13:45;18.90;;;3.05;;
49722;SDS011;43484;43.608;1.458;2023-08-06T07:16:11;19.40;;;2.50;;
49722;SDS011;43484;43.608;1.458;2023-08-06T07:18:38;15.63;;;1.95;;
49722;SDS011;43484;43.608;1.458;2023-08-06T07:21:05;15.70;;;2.33;;
49722;SDS011;43484;43.608;1.458;2023-08-06T07:23:31;15.85;;;2.30;;
49722;SDS011;43484;43.608;1.458;2023-08-06T07:25:58;13.75;;;2.00;;
49722;SDS011;43484;43.608;1.458;2023-08-06T07:28:24;16.38;;;2.50;;
49722;SDS011;43484;43.608;1.458;2023-08-06T07:30:51;19.10;;;1.85;;
49722;SDS011;43484;43.608;1.458;2023-08-06T07:33:18;11.63;;;2.20;;
49722;SDS011;43484;43.608;1.458;2023-08-06T07:35:44;13.90;;;1.75;;
49722;SDS011;43484;43.608;1.458;2023-08-06T07:38:11;20.70;;;2.35;;
49722;SDS011;43484;43.608;1.458;2023-08-06T07:40:38;19.30;;;2.55;;
49722;SDS011;43484;43.608;1.458;2023-08-06T07:43:05;17.90;;;2.25;;
49722;SDS011;43484;43.608;1.458;2023-08-06T07:45:32;14.38;;;2.50;;
49722;SDS011;43484;43.608;1.458;2023-08-06T07:48:01;19.17;;;1.90;;
49722;SDS011;43484;43.608;1.458;2023-08-06T07:50:28;12.75;;;1.80;;
49722;SDS011;43484;43.608;1.458;2023-08-06T07:52:55;13.80;;;1.90;;
49722;SDS011;43484;43.608;1.458;2023-08-06T07:55:21;13.60;;;1.80;;
49722;SDS011;43484;43.608;1.458;2023-08-06T07:57:49;14.35;;;1.88;;
49722;SDS011;43484;43.608;1.458;2023-08-06T08:00:15;13.95;;;2.53;;
49722;SDS011;43484;43.608;1.458;2023-08-06T08:02:42;12.18;;;2.10;;
49722;SDS011;43484;43.608;1.458;2023-08-06T08:05:09;12.55;;;1.90;;
49722;SDS011;43484;43.608;1.458;2023-08-06T08:07:35;13.77;;;2.17;;
49722;SDS011;43484;43.608;1.458;2023-08-06T08:10:02;13.75;;;2.53;;
49722;SDS011;43484;43.608;1.458;2023-08-06T08:12:31;11.98;;;2.00;;
49722;SDS011;43484;43.608;1.458;2023-08-06T08:14:58;16.27;;;1.75;;
49722;SDS011;43484;43.608;1.458;2023-08-06T08:17:24;20.60;;;2.22;;
49722;SDS011;43484;43.608;1.458;2023-08-06T08:19:51;11.30;;;1.85;;
49722;SDS011;43484;43.608;1.458;2023-08-06T08:22:17;15.30;;;2.08;;
49722;SDS011;43484;43.608;1.458;2023-08-06T08:24:44;14.57;;;2.47;;
49722;SDS011;43484;43.608;1.458;2023-08-06T08:27:11;16.88;;;2.38;;
49722;SDS011;43484;43.608;1.458;2023-08-06T08:29:37;11.65;;;1.70;;
49722;SDS011;43484;43.608;1.458;2023-08-06T08:32:04;10.48;;;1.35;;
49722;SDS011;43484;43.608;1.458;2023-08-06T08:34:31;17.15;;;1.98;;
49722;SDS011;43484;43.608;1.458;2023-08-06T08:36:57;14.50;;;2.03;;
49722;SDS011;43484;43.608;1.458;2023-08-06T08:39:25;12.98;;;1.60;;
49722;SDS011;43484;43.608;1.458;2023-08-06T08:41:51;11.20;;;1.70;;
49722;SDS011;43484;43.608;1.458;2023-08-06T08:44:19;11.20;;;2.00;;
49722;SDS011;43484;43.608;1.458;2023-08-06T08:46:45;10.63;;;1.95;;
49722;SDS011;43484;43.608;1.458;2023-08-06T08:49:14;13.95;;;1.67;;
49722;SDS011;43484;43.608;1.458;2023-08-06T08:51:41;17.27;;;2.13;;
49722;SDS011;43484;43.608;1.458;2023-08-06T08:54:09;8.07;;;1.55;;
49722;SDS011;43484;43.608;1.458;2023-08-06T08:56:39;10.07;;;1.52;;
49722;SDS011;43484;43.608;1.458;2023-08-06T08:59:06;16.63;;;1.73;;
49722;SDS011;43484;43.608;1.458;2023-08-06T09:01:32;12.68;;;1.65;;
49722;SDS011;43484;43.608;1.458;2023-08-06T09:04:01;15.85;;;1.67;;
49722;SDS011;43484;43.608;1.458;2023-08-06T09:06:29;17.95;;;2.53;;
49722;SDS011;43484;43.608;1.458;2023-08-06T09:09:03;8.50;;;1.40;;
49722;SDS011;43484;43.608;1.458;2023-08-06T09:11:43;11.15;;;1.60;;
49722;SDS011;43484;43.608;1.458;2023-08-06T09:14:10;20.83;;;2.10;;
49722;SDS011;43484;43.608;1.458;2023-08-06T09:16:38;18.17;;;2.40;;
49722;SDS011;43484;43.608;1.458;2023-08-06T09:19:06;11.25;;;1.60;;
49722;SDS011;43484;43.608;1.458;2023-08-06T09:21:37;10.98;;;1.75;;
49722;SDS011;43484;43.608;1.458;2023-08-06T09:24:11;10.15;;;1.38;;
49722;SDS011;43484;43.608;1.458;2023-08-06T09:26:39;14.07;;;1.75;;
49722;SDS011;43484;43.608;1.458;2023-08-06T09:29:08;13.10;;;1.67;;
49722;SDS011;43484;43.608;1.458;2023-08-06T09:31:41;12.48;;;1.83;;
49722;SDS011;43484;43.608;1.458;2023-08-06T09:34:18;10.38;;;1.67;;
49722;SDS011;43484;43.608;1.458;2023-08-06T09:36:49;11.35;;;1.85;;
49722;SDS011;43484;43.608;1.458;2023-08-06T09:39:18;13.82;;;1.73;;
49722;SDS011;43484;43.608;1.458;2023-08-06T09:41:46;10.07;;;1.90;;
49722;SDS011;43484;43.608;1.458;2023-08-06T09:44:18;10.57;;;1.52;;
49722;SDS011;43484;43.608;1.458;2023-08-06T09:49:18;16.38;;;2.30;;
49722;SDS011;43484;43.608;1.458;2023-08-06T09:51:50;6.10;;;1.30;;
49722;SDS011;43484;43.608;1.458;2023-08-06T09:54:18;10.95;;;1.95;;
49722;SDS011;43484;43.608;1.458;2023-08-06T09:59:20;13.93;;;1.90;;
49722;SDS011;43484;43.608;1.458;2023-08-06T10:01:47;11.35;;;1.90;;
49722;SDS011;43484;43.608;1.458;2023-08-06T10:04:15;15.05;;;1.38;;
49722;SDS011;43484;43.608;1.458;2023-08-06T10:06:51;9.70;;;1.73;;
49722;SDS011;43484;43.608;1.458;2023-08-06T10:09:19;13.55;;;1.55;;
49722;SDS011;43484;43.608;1.458;2023-08-06T10:11:50;14.00;;;1.60;;
49722;SDS011;43484;43.608;1.458;2023-08-06T10:14:21;11.35;;;1.70;;
49722;SDS011;43484;43.608;1.458;2023-08-06T10:16:52;8.77;;;1.83;;
49722;SDS011;43484;43.608;1.458;2023-08-06T10:19:19;10.90;;;1.38;;
49722;SDS011;43484;43.608;1.458;2023-08-06T10:27:19;10.95;;;1.42;;
49722;SDS011;43484;43.608;1.458;2023-08-06T10:32:58;11.27;;;1.67;;
49722;SDS011;43484;43.608;1.458;2023-08-06T10:35:31;10.27;;;1.33;;
49722;SDS011;43484;43.608;1.458;2023-08-06T10:38:34;7.28;;;1.52;;
49722;SDS011;43484;43.608;1.458;2023-08-06T10:43:32;5.38;;;1.20;;
49722;SDS011;43484;43.608;1.458;2023-08-06T10:46:03;11.82;;;2.13;;
49722;SDS011;43484;43.608;1.458;2023-08-06T10:48:36;12.50;;;1.58;;
49722;SDS011;43484;43.608;1.458;2023-08-06T10:51:12;16.17;;;1.60;;
49722;SDS011;43484;43.608;1.458;2023-08-06T10:53:43;9.43;;;1.48;;
49722;SDS011;43484;43.608;1.458;2023-08-06T10:58:41;11.85;;;2.15;;
49722;SDS011;43484;43.608;1.458;2023-08-06T11:01:09;9.43;;;1.20;;
49722;SDS011;43484;43.608;1.458;2023-08-06T11:03:36;9.20;;;1.42;;
49722;SDS011;43484;43.608;1.458;2023-08-06T11:06:03;4.95;;;1.20;;
49722;SDS011;43484;43.608;1.458;2023-08-06T11:08:34;10.60;;;1.73;;
49722;SDS011;43484;43.608;1.458;2023-08-06T11:11:13;7.00;;;1.17;;
49722;SDS011;43484;43.608;1.458;2023-08-06T11:13:48;6.43;;;1.08;;
49722;SDS011;43484;43.608;1.458;2023-08-06T11:16:20;10.27;;;1.30;;
49722;SDS011;43484;43.608;1.458;2023-08-06T11:18:50;14.63;;;1.45;;
49722;SDS011;43484;43.608;1.458;2023-08-06T11:21:20;9.98;;;1.52;;
49722;SDS011;43484;43.608;1.458;2023-08-06T11:23:48;8.77;;;1.70;;
49722;SDS011;43484;43.608;1.458;2023-08-06T11:26:18;8.35;;;1.38;;
49722;SDS011;43484;43.608;1.458;2023-08-06T11:28:46;8.57;;;1.92;;
49722;SDS011;43484;43.608;1.458;2023-08-06T11:31:22;9.25;;;1.65;;
49722;SDS011;43484;43.608;1.458;2023-08-06T11:33:50;7.15;;;1.63;;
49722;SDS011;43484;43.608;1.458;2023-08-06T11:36:27;7.75;;;1.30;;
49722;SDS011;43484;43.608;1.458;2023-08-06T11:38:58;7.13;;;1.30;;
49722;SDS011;43484;43.608;1.458;2023-08-06T11:41:27;7.78;;;1.15;;
49722;SDS011;43484;43.608;1.458;2023-08-06T11:43:58;7.90;;;1.17;;
49722;SDS011;43484;43.608;1.458;2023-08-06T11:46:26;10.68;;;1.50;;
49722;SDS011;43484;43.608;1.458;2023-08-06T11:48:53;7.53;;;1.35;;
49722;SDS011;43484;43.608;1.458;2023-08-06T11:51:25;8.77;;;1.40;;
49722;SDS011;43484;43.608;1.458;2023-08-06T11:53:57;5.95;;;1.02;;
49722;SDS011;43484;43.608;1.458;2023-08-06T11:56:25;3.17;;;0.90;;
49722;SDS011;43484;43.608;1.458;2023-08-06T11:58:53;3.85;;;0.90;;
49722;SDS011;43484;43.608;1.458;2023-08-06T12:01:21;6.22;;;1.35;;
49722;SDS011;43484;43.608;1.458;2023-08-06T12:03:47;8.07;;;1.00;;
49722;SDS011;43484;43.608;1.458;2023-08-06T12:06:14;7.38;;;1.33;;
49722;SDS011;43484;43.608;1.458;2023-08-06T12:08:41;9.93;;;1.33;;
49722;SDS011;43484;43.608;1.458;2023-08-06T12:11:08;4.30;;;0.75;;
49722;SDS011;43484;43.608;1.458;2023-08-06T12:13:35;5.38;;;1.00;;
49722;SDS011;43484;43.608;1.458;2023-08-06T12:16:02;4.10;;;1.00;;
49722;SDS011;43484;43.608;1.458;2023-08-06T12:18:29;7.15;;;1.60;;
49722;SDS011;43484;43.608;1.458;2023-08-06T12:20:55;8.05;;;1.23;;
49722;SDS011;43484;43.608;1.458;2023-08-06T12:23:25;6.13;;;1.38;;
49722;SDS011;43484;43.608;1.458;2023-08-06T12:25:51;4.47;;;1.13;;
49722;SDS011;43484;43.608;1.458;2023-08-06T12:28:18;4.72;;;1.20;;
49722;SDS011;43484;43.608;1.458;2023-08-06T12:30:48;7.00;;;1.40;;
49722;SDS011;43484;43.608;1.458;2023-08-06T12:33:16;5.97;;;1.33;;
49722;SDS011;43484;43.608;1.458;2023-08-06T12:35:42;5.47;;;1.17;;
49722;SDS011;43484;43.608;1.458;2023-08-06T12:38:09;9.95;;;1.42;;
49722;SDS011;43484;43.608;1.458;2023-08-06T12:40:35;4.63;;;1.20;;
49722;SDS011;43484;43.608;1.458;2023-08-06T12:43:06;3.13;;;0.90;;
49722;SDS011;43484;43.608;1.458;2023-08-06T12:45:33;6.72;;;1.30;;
49722;SDS011;43484;43.608;1.458;2023-08-06T12:48:00;4.05;;;0.80;;
49722;SDS011;43484;43.608;1.458;2023-08-06T12:50:26;4.53;;;0.90;;
49722;SDS011;43484;43.608;1.458;2023-08-06T12:52:53;6.60;;;1.52;;
49722;SDS011;43484;43.608;1.458;2023-08-06T12:55:20;6.25;;;0.93;;
49722;SDS011;43484;43.608;1.458;2023-08-06T12:57:46;5.85;;;1.10;;
49722;SDS011;43484;43.608;1.458;2023-08-06T13:00:23;7.85;;;1.48;;
49722;SDS011;43484;43.608;1.458;2023-08-06T13:02:50;8.98;;;1.33;;
49722;SDS011;43484;43.608;1.458;2023-08-06T13:05:17;4.65;;;1.30;;
49722;SDS011;43484;43.608;1.458;2023-08-06T13:07:44;5.93;;;0.95;;
49722;SDS011;43484;43.608;1.458;2023-08-06T13:10:11;6.15;;;1.17;;
49722;SDS011;43484;43.608;1.458;2023-08-06T13:12:37;8.50;;;1.60;;
49722;SDS011;43484;43.608;1.458;2023-08-06T13:15:04;9.23;;;1.25;;
49722;SDS011;43484;43.608;1.458;2023-08-06T13:17:31;4.00;;;1.25;;
49722;SDS011;43484;43.608;1.458;2023-08-06T13:19:58;6.20;;;1.40;;
49722;SDS011;43484;43.608;1.458;2023-08-06T13:22:24;9.73;;;1.10;;
49722;SDS011;43484;43.608;1.458;2023-08-06T13:24:51;8.23;;;1.20;;
49722;SDS011;43484;43.608;1.458;2023-08-06T13:27:18;8.40;;;1.33;;
49722;SDS011;43484;43.608;1.458;2023-08-06T13:29:44;5.55;;;1.13;;
49722;SDS011;43484;43.608;1.458;2023-08-06T13:32:11;4.70;;;1.20;;
49722;SDS011;43484;43.608;1.458;2023-08-06T13:34:38;4.22;;;1.13;;
49722;SDS011;43484;43.608;1.458;2023-08-06T13:37:04;6.07;;;1.10;;
49722;SDS011;43484;43.608;1.458;2023-08-06T13:39:31;6.65;;;1.85;;
49722;SDS011;43484;43.608;1.458;2023-08-06T13:41:58;6.30;;;1.38;;
49722;SDS011;43484;43.608;1.458;2023-08-06T13:44:24;9.10;;;1.48;;
49722;SDS011;43484;43.608;1.458;2023-08-06T13:46:51;9.85;;;1.67;;
49722;SDS011;43484;43.608;1.458;2023-08-06T13:49:18;6.40;;;1.25;;
49722;SDS011;43484;43.608;1.458;2023-08-06T13:51:45;6.65;;;1.30;;
49722;SDS011;43484;43.608;1.458;2023-08-06T13:54:11;9.43;;;1.60;;
49722;SDS011;43484;43.608;1.458;2023-08-06T13:56:38;7.53;;;1.42;;
49722;SDS011;43484;43.608;1.458;2023-08-06T13:59:04;6.05;;;0.98;;
49722;SDS011;43484;43.608;1.458;2023-08-06T14:01:31;7.13;;;1.33;;
49722;SDS011;43484;43.608;1.458;2023-08-06T14:04:16;6.00;;;1.20;;
49722;SDS011;43484;43.608;1.458;2023-08-06T14:06:42;6.20;;;1.20;;
49722;SDS011;43484;43.608;1.458;2023-08-06T14:09:10;8.40;;;1.77;;
49722;SDS011;43484;43.608;1.458;2023-08-06T14:11:39;5.07;;;1.42;;
49722;SDS011;43484;43.608;1.458;2023-08-06T14:14:05;3.90;;;1.30;;
49722;SDS011;43484;43.608;1.458;2023-08-06T14:16:33;7.88;;;1.10;;
49722;SDS011;43484;43.608;1.458;2023-08-06T14:19:00;9.60;;;1.27;;
49722;SDS011;43484;43.608;1.458;2023-08-06T14:21:26;8.38;;;1.65;;
49722;SDS011;43484;43.608;1.458;2023-08-06T14:23:53;7.47;;;1.30;;
49722;SDS011;43484;43.608;1.458;2023-08-06T14:26:20;7.15;;;1.20;;
49722;SDS011;43484;43.608;1.458;2023-08-06T14:28:46;7.45;;;1.73;;
49722;SDS011;43484;43.608;1.458;2023-08-06T14:31:13;4.60;;;1.27;;
49722;SDS011;43484;43.608;1.458;2023-08-06T14:33:40;5.30;;;1.25;;
49722;SDS011;43484;43.608;1.458;2023-08-06T14:36:07;6.97;;;1.65;;
49722;SDS011;43484;43.608;1.458;2023-08-06T14:38:33;4.00;;;0.77;;
49722;SDS011;43484;43.608;1.458;2023-08-06T14:41:11;5.28;;;1.10;;
49722;SDS011;43484;43.608;1.458;2023-08-06T14:43:38;9.15;;;1.27;;
49722;SDS011;43484;43.608;1.458;2023-08-06T14:46:04;9.18;;;1.65;;
49722;SDS011;43484;43.608;1.458;2023-08-06T14:48:31;4.65;;;1.00;;
49722;SDS011;43484;43.608;1.458;2023-08-06T14:50:58;10.15;;;1.63;;
49722;SDS011;43484;43.608;1.458;2023-08-06T14:53:24;6.40;;;1.05;;
49722;SDS011;43484;43.608;1.458;2023-08-06T14:55:51;7.40;;;1.20;;
49722;SDS011;43484;43.608;1.458;2023-08-06T14:58:19;5.82;;;1.02;;
49722;SDS011;43484;43.608;1.458;2023-08-06T15:00:45;5.55;;;1.13;;
49722;SDS011;43484;43.608;1.458;2023-08-06T15:03:13;4.95;;;1.17;;
49722;SDS011;43484;43.608;1.458;2023-08-06T15:05:42;5.40;;;1.15;;
49722;SDS011;43484;43.608;1.458;2023-08-06T15:08:09;5.03;;;0.90;;